createdAt,value
2022-10-03T00:04:53.083Z,50.50
2022-10-03T00:10:03.855Z,50.62
2022-10-03T00:15:09.999Z,50.72
2022-10-03T00:20:32.962Z,50.43
2022-10-03T00:25:41.365Z,50.55
2022-10-03T00:30:50.621Z,50.36
2022-10-03T00:36:00.589Z,50.24
2022-10-03T00:41:15.424Z,50.53
2022-10-03T00:46:40.543Z,50.31
2022-10-03T00:51:51.971Z,50.25
2022-10-03T00:57:04.553Z,50.45
2022-10-03T01:02:23.149Z,50.39
2022-10-03T01:07:33.167Z,50.39
2022-10-03T01:12:54.855Z,50.45
2022-10-03T01:18:08.625Z,50.52
2022-10-03T01:23:39.790Z,50.42
2022-10-03T01:29:07.967Z,50.19
2022-10-03T01:34:14.015Z,50.47
2022-10-03T01:39:20.024Z,50.31
2022-10-03T01:44:25.386Z,50.57
2022-10-03T01:49:30.935Z,50.46
2022-10-03T01:54:37.875Z,50.49
2022-10-03T01:59:43.081Z,50.52
2022-10-03T02:04:48.894Z,50.49
2022-10-03T02:09:58.309Z,50.48
2022-10-03T02:15:03.379Z,50.46
2022-10-03T02:20:08.085Z,50.29
2022-10-03T02:25:19.342Z,50.54
2022-10-03T02:30:24.313Z,50.36
2022-10-03T02:35:42.911Z,50.36
2022-10-03T02:40:51.032Z,50.47
2022-10-03T02:46:23.817Z,50.60
2022-10-03T02:51:50.271Z,50.62
2022-10-03T02:57:26.206Z,50.24
2022-10-03T03:03:01.224Z,50.57
2022-10-03T03:08:14.973Z,50.42
2022-10-03T03:13:30.801Z,50.61
2022-10-03T03:18:36.362Z,50.49
2022-10-03T03:23:55.078Z,50.61
2022-10-03T03:29:02.084Z,50.43
2022-10-03T03:34:08.101Z,50.47
2022-10-03T03:39:23.490Z,50.34
2022-10-03T03:44:48.377Z,50.46
2022-10-03T03:50:13.567Z,50.37
2022-10-03T03:55:33.403Z,50.38
2022-10-03T04:00:43.489Z,50.54
2022-10-03T04:05:55.500Z,50.89
2022-10-03T04:11:04.141Z,50.93
2022-10-03T04:16:12.398Z,51.05
2022-10-03T04:21:28.554Z,50.81
2022-10-03T04:26:38.472Z,51.03
2022-10-03T04:31:45.141Z,51.33
2022-10-03T04:37:13.842Z,51.47
2022-10-03T04:42:27.123Z,51.42
2022-10-03T04:47:32.367Z,51.47
2022-10-03T04:52:39.538Z,51.64
2022-10-03T04:57:45.485Z,51.86
2022-10-03T05:02:51.363Z,51.66
2022-10-03T05:08:02.395Z,51.63
2022-10-03T05:13:11.994Z,51.70
2022-10-03T05:18:16.407Z,51.68
2022-10-03T05:23:31.289Z,51.52
2022-10-03T05:28:38.908Z,51.89
2022-10-03T05:33:43.932Z,51.97
2022-10-03T05:39:31.463Z,51.88
2022-10-03T05:44:41.837Z,51.75
2022-10-03T05:49:51.357Z,52.22
2022-10-03T05:55:09.357Z,51.93
2022-10-03T06:00:19.497Z,51.88
2022-10-03T06:05:32.212Z,51.74
2022-10-03T06:10:44.424Z,51.71
2022-10-03T06:15:54.177Z,51.66
2022-10-03T06:21:15.561Z,51.64
2022-10-03T06:26:36.083Z,51.68
2022-10-03T06:37:25.778Z,49.86
2022-10-03T06:42:55.054Z,50.88
2022-10-03T06:48:08.502Z,51.19
2022-10-03T06:53:21.155Z,51.09
2022-10-03T06:58:43.527Z,51.02
2022-10-03T07:04:37.078Z,51.09
2022-10-03T07:10:19.256Z,50.79
2022-10-03T07:16:14.197Z,51.08
2022-10-03T07:21:37.705Z,50.40
2022-10-03T07:27:08.868Z,50.31
2022-10-03T07:32:19.122Z,50.21
2022-10-03T07:37:50.047Z,49.87
2022-10-03T07:43:03.914Z,49.41
2022-10-03T07:48:26.151Z,49.04
2022-10-03T07:53:43.340Z,47.12
2022-10-03T07:58:58.123Z,46.48
2022-10-03T08:04:30.452Z,48.02
2022-10-03T08:09:41.173Z,47.84
2022-10-03T08:14:57.975Z,47.82
2022-10-03T08:20:16.598Z,48.17
2022-10-03T08:25:27.037Z,47.87
2022-10-03T08:30:34.436Z,48.04
2022-10-03T08:35:48.652Z,47.96
2022-10-03T08:41:20.435Z,47.88
2022-10-03T08:46:37.873Z,48.30
2022-10-03T08:52:10.730Z,48.47
2022-10-03T08:57:42.694Z,48.36
2022-10-03T09:03:42.813Z,48.42
2022-10-03T09:09:25.551Z,48.30
2022-10-03T09:14:47.404Z,48.25
2022-10-03T09:20:29.269Z,48.22
2022-10-03T09:25:40.601Z,48.23
2022-10-03T09:30:49.273Z,47.70
2022-10-03T09:36:12.900Z,48.12
2022-10-03T09:41:52.776Z,48.38
2022-10-03T09:47:22.334Z,48.37
2022-10-03T09:52:36.186Z,48.48
2022-10-03T09:57:53.702Z,48.32
2022-10-03T10:03:42.356Z,48.23
2022-10-03T10:09:08.169Z,48.43
2022-10-03T10:14:30.085Z,48.27
2022-10-03T10:19:55.936Z,48.16
2022-10-03T10:25:24.848Z,48.20
2022-10-03T10:30:39.762Z,47.88
2022-10-03T10:35:55.021Z,48.42
2022-10-03T10:41:37.396Z,48.53
2022-10-03T10:46:55.872Z,47.70
2022-10-03T10:52:25.209Z,46.13
2022-10-03T10:57:53.152Z,45.30
2022-10-03T11:03:37.713Z,44.95
2022-10-03T11:09:12.664Z,44.50
2022-10-03T11:14:35.285Z,44.25
2022-10-03T11:20:16.932Z,44.25
2022-10-03T11:25:55.716Z,44.12
2022-10-03T11:31:31.743Z,43.74
2022-10-03T11:36:48.468Z,43.78
2022-10-03T11:41:54.587Z,43.49
2022-10-03T11:47:30.857Z,43.51
2022-10-03T11:52:36.163Z,43.75
2022-10-03T11:57:40.057Z,43.54
2022-10-03T12:03:20.294Z,43.25
2022-10-03T12:08:44.805Z,43.13
2022-10-03T12:14:08.622Z,42.80
2022-10-03T12:19:24.995Z,42.65
2022-10-03T12:24:29.379Z,42.47
2022-10-03T12:29:34.639Z,42.19
2022-10-03T12:34:39.685Z,41.97
2022-10-03T12:39:46.882Z,42.21
2022-10-03T12:44:52.469Z,42.17
2022-10-03T12:49:57.427Z,42.49
2022-10-03T12:55:14.375Z,41.88
2022-10-03T13:00:21.540Z,41.69
2022-10-03T13:05:37.676Z,41.81
2022-10-03T13:10:45.611Z,41.65
2022-10-03T13:16:04.263Z,42.45
2022-10-03T13:21:33.325Z,43.23
2022-10-03T13:26:43.516Z,43.54
2022-10-03T13:31:55.385Z,43.81
2022-10-03T13:37:00.587Z,43.96
2022-10-03T13:42:11.265Z,43.83
2022-10-03T13:47:29.930Z,43.83
2022-10-03T13:52:37.301Z,43.99
2022-10-03T13:57:44.759Z,44.12
2022-10-03T14:02:59.040Z,44.23
2022-10-03T14:08:08.529Z,44.20
2022-10-03T14:13:18.001Z,44.23
2022-10-03T14:18:30.278Z,44.35
2022-10-03T14:23:34.044Z,44.49
2022-10-03T14:28:39.471Z,44.34
2022-10-03T14:33:44.958Z,44.27
2022-10-03T14:39:02.161Z,44.15
2022-10-03T14:44:12.933Z,43.80
2022-10-03T14:49:48.525Z,42.90
2022-10-03T14:54:43.822Z,42.29
2022-10-03T14:59:50.927Z,41.67
2022-10-03T15:04:54.042Z,41.48
2022-10-03T15:09:58.516Z,42.77
2022-10-03T15:15:03.817Z,43.33
2022-10-03T15:20:07.673Z,43.43
2022-10-03T15:25:13.802Z,43.65
2022-10-03T15:30:22.454Z,44.54
2022-10-03T15:35:27.340Z,44.48
2022-10-03T15:40:32.199Z,43.86
2022-10-03T15:45:36.355Z,44.30
2022-10-03T15:50:41.129Z,44.34
2022-10-03T15:55:46.744Z,44.53
2022-10-03T16:00:54.622Z,44.75
2022-10-03T16:06:08.420Z,45.04
2022-10-03T16:11:14.343Z,45.61
2022-10-03T16:16:20.075Z,44.24
2022-10-03T16:21:44.858Z,42.25
2022-10-03T16:26:51.775Z,42.85
2022-10-03T16:31:56.976Z,43.64
2022-10-03T16:36:59.735Z,43.94
2022-10-03T16:42:03.211Z,44.01
2022-10-03T16:47:07.986Z,44.26
2022-10-03T16:52:11.583Z,44.37
2022-10-03T16:57:15.669Z,44.26
2022-10-03T17:02:20.904Z,44.82
2022-10-03T17:07:25.111Z,45.08
2022-10-03T17:12:29.579Z,44.75
2022-10-03T17:17:35.231Z,45.19
2022-10-03T17:22:38.929Z,45.22
2022-10-03T17:27:41.803Z,45.25
2022-10-03T17:32:45.889Z,45.12
2022-10-03T17:38:30.364Z,45.19
2022-10-03T17:43:36.700Z,45.34
2022-10-03T17:48:42.813Z,45.43
2022-10-03T17:53:53.158Z,45.63
2022-10-03T17:59:00.862Z,45.72
2022-10-03T18:04:05.750Z,45.83
2022-10-03T18:09:10.342Z,45.88
2022-10-03T18:14:14.748Z,46.05
2022-10-03T18:19:23.580Z,46.15
2022-10-03T18:24:46.737Z,46.56
2022-10-03T18:29:50.493Z,46.89
2022-10-03T18:35:01.461Z,46.95
2022-10-03T18:40:05.524Z,46.96
2022-10-03T18:45:17.021Z,47.08
2022-10-03T18:50:25.812Z,46.99
2022-10-03T18:55:30.318Z,47.21
2022-10-03T19:00:33.710Z,47.22
2022-10-03T19:05:40.366Z,47.63
2022-10-03T19:10:43.832Z,47.23
2022-10-03T19:16:18.281Z,47.29
2022-10-03T19:21:22.656Z,47.54
2022-10-03T19:26:26.701Z,47.69
2022-10-03T19:31:31.220Z,47.54
2022-10-03T19:36:36.501Z,47.41
2022-10-03T19:41:41.596Z,48.12
2022-10-03T19:46:54.649Z,47.83
2022-10-03T19:52:12.413Z,47.84
2022-10-03T19:57:16.224Z,47.52
2022-10-03T20:02:22.449Z,47.52
2022-10-03T20:07:45.700Z,47.60
2022-10-03T20:12:50.467Z,47.55
2022-10-03T20:17:53.824Z,47.90
2022-10-03T20:22:58.506Z,47.86
2022-10-03T20:28:02.850Z,47.66
2022-10-03T20:33:05.549Z,47.74
2022-10-03T20:38:14.331Z,47.69
2022-10-03T20:43:32.706Z,47.79
2022-10-03T20:48:36.512Z,47.74
2022-10-03T20:53:42.257Z,47.86
2022-10-03T20:58:50.964Z,47.82
2022-10-03T21:04:04.866Z,47.88
2022-10-03T21:09:08.876Z,47.82
2022-10-03T21:14:15.634Z,47.81
2022-10-03T21:19:20.896Z,47.77
2022-10-03T21:24:27.102Z,47.91
2022-10-03T21:29:30.793Z,47.87
2022-10-03T21:34:36.286Z,47.68
2022-10-03T21:39:44.613Z,47.69
2022-10-03T21:45:06.050Z,47.81
2022-10-03T21:50:08.801Z,47.96
2022-10-03T21:55:45.429Z,47.79
2022-10-03T22:01:02.872Z,47.94
2022-10-03T22:06:08.999Z,47.96
2022-10-03T22:11:17.782Z,47.99
2022-10-03T22:16:24.010Z,48.00
2022-10-03T22:21:27.596Z,48.29
2022-10-03T22:26:33.802Z,48.35
2022-10-03T22:31:39.865Z,48.46
2022-10-03T22:36:42.723Z,48.88
2022-10-03T22:41:47.502Z,48.75
2022-10-03T22:46:51.682Z,49.10
2022-10-03T22:51:54.931Z,49.03
2022-10-03T22:56:59.523Z,49.14
2022-10-03T23:02:03.544Z,49.10
2022-10-03T23:07:33.155Z,49.30
2022-10-03T23:12:39.525Z,49.63
2022-10-03T23:18:05.991Z,49.88
2022-10-03T23:23:13.723Z,49.82
2022-10-03T23:28:19.227Z,50.18
2022-10-03T23:33:53.081Z,50.14
2022-10-03T23:38:59.578Z,50.27
2022-10-03T23:44:03.792Z,50.47
2022-10-03T23:49:06.499Z,50.60
2022-10-03T23:54:09.532Z,50.64
2022-10-03T23:59:19.877Z,50.81
